createdAt,value
2022-11-01T00:01:59.870Z,6.87
2022-11-01T00:04:28.236Z,7.30
2022-11-01T00:06:56.527Z,7.40
2022-11-01T00:09:24.433Z,7.10
2022-11-01T00:11:52.330Z,7.17
2022-11-01T00:14:21.060Z,7.00
2022-11-01T00:16:49.903Z,7.43
2022-11-01T00:19:19.481Z,6.80
2022-11-01T00:21:47.319Z,6.77
2022-11-01T00:24:15.234Z,7.10
2022-11-01T00:26:43.387Z,6.77
2022-11-01T00:29:13.202Z,7.40
2022-11-01T00:31:41.127Z,7.30
2022-11-01T00:34:10.955Z,10.00
2022-11-01T00:36:40.220Z,7.37
2022-11-01T00:39:08.186Z,7.20
2022-11-01T00:41:36.420Z,7.17
2022-11-01T00:44:04.592Z,7.33
2022-11-01T00:46:32.911Z,7.00
2022-11-01T00:49:01.363Z,7.23
2022-11-01T00:51:29.330Z,6.93
2022-11-01T00:53:58.608Z,7.00
2022-11-01T00:56:26.565Z,6.37
2022-11-01T00:58:54.427Z,6.70
2022-11-01T01:01:22.578Z,6.10
2022-11-01T01:03:50.579Z,6.30
2022-11-01T01:06:18.436Z,6.50
2022-11-01T01:08:46.564Z,6.00
2022-11-01T01:11:16.620Z,6.43
2022-11-01T01:13:44.580Z,5.87
2022-11-01T01:16:13.724Z,6.27
2022-11-01T01:18:41.707Z,6.37
2022-11-01T01:21:09.703Z,6.40
2022-11-01T01:23:38.028Z,6.00
2022-11-01T01:26:10.037Z,6.57
2022-11-01T01:28:43.531Z,6.30
2022-11-01T01:31:13.735Z,5.87
2022-11-01T01:33:41.603Z,5.77
2022-11-01T01:36:09.731Z,5.97
2022-11-01T01:38:37.703Z,5.60
2022-11-01T01:41:19.896Z,5.10
2022-11-01T01:43:49.248Z,5.73
2022-11-01T01:46:17.106Z,6.23
2022-11-01T01:48:50.695Z,6.47
2022-11-01T01:51:23.926Z,5.93
2022-11-01T01:53:54.304Z,6.10
2022-11-01T01:56:28.234Z,5.50
2022-11-01T01:59:02.727Z,5.70
2022-11-01T02:01:31.492Z,5.17
2022-11-01T02:04:01.974Z,5.30
2022-11-01T02:06:29.861Z,5.60
2022-11-01T02:09:00.871Z,6.23
2022-11-01T02:11:28.767Z,5.30
2022-11-01T02:13:59.035Z,5.03
2022-11-01T02:16:41.122Z,5.37
2022-11-01T02:20:01.035Z,4.80
2022-11-01T02:22:47.549Z,4.87
2022-11-01T02:25:31.611Z,4.87
2022-11-01T02:28:20.266Z,5.40
2022-11-01T02:31:00.456Z,5.30
2022-11-01T02:33:35.294Z,5.93
2022-11-01T02:36:07.401Z,5.97
2022-11-01T02:38:40.668Z,6.70
2022-11-01T02:41:12.595Z,6.40
2022-11-01T02:43:46.890Z,6.13
2022-11-01T02:46:33.289Z,5.63
2022-11-01T02:49:03.554Z,4.57
2022-11-01T02:51:32.961Z,4.23
2022-11-01T02:54:02.793Z,4.37
2022-11-01T02:56:31.487Z,4.60
2022-11-01T02:58:59.355Z,4.60
2022-11-01T03:01:30.305Z,4.30
2022-11-01T03:03:59.796Z,4.47
2022-11-01T03:06:35.452Z,4.77
2022-11-01T03:09:07.871Z,4.40
2022-11-01T03:11:45.009Z,4.43
2022-11-01T03:14:21.364Z,4.83
2022-11-01T03:16:56.494Z,4.60
2022-11-01T03:19:36.010Z,4.30
2022-11-01T03:22:11.021Z,4.23
2022-11-01T03:24:45.528Z,4.37
2022-11-01T03:27:18.014Z,4.70
2022-11-01T03:29:56.250Z,4.43
2022-11-01T03:32:26.685Z,4.60
2022-11-01T03:34:55.430Z,3.63
2022-11-01T03:37:25.582Z,4.27
2022-11-01T03:39:55.258Z,5.07
2022-11-01T03:42:24.919Z,4.33
2022-11-01T03:44:58.976Z,3.97
2022-11-01T03:47:28.106Z,4.37
2022-11-01T03:50:15.949Z,4.43
2022-11-01T03:52:45.440Z,3.87
2022-11-01T03:55:20.212Z,3.87
2022-11-01T03:57:48.936Z,4.10
2022-11-01T04:00:19.081Z,3.50
2022-11-01T04:02:46.949Z,3.77
2022-11-01T04:05:14.986Z,3.80
2022-11-01T04:07:45.349Z,3.50
2022-11-01T04:10:13.861Z,3.73
2022-11-01T04:12:41.880Z,3.63
2022-11-01T04:15:29.216Z,4.03
2022-11-01T04:18:25.526Z,3.57
2022-11-01T04:20:54.344Z,3.23
2022-11-01T04:23:23.667Z,3.80
2022-11-01T04:25:51.592Z,3.70
2022-11-01T04:28:19.608Z,3.50
2022-11-01T04:30:47.403Z,3.13
2022-11-01T04:33:15.289Z,3.27
2022-11-01T04:35:43.163Z,3.37
2022-11-01T04:38:11.790Z,3.50
2022-11-01T04:40:41.522Z,3.27
2022-11-01T04:43:09.639Z,3.03
2022-11-01T04:45:37.577Z,3.67
2022-11-01T04:48:07.802Z,3.10
2022-11-01T04:50:38.661Z,3.40
2022-11-01T04:53:06.868Z,2.73
2022-11-01T04:55:34.780Z,3.10
2022-11-01T04:58:04.485Z,2.80
2022-11-01T05:00:33.172Z,2.80
2022-11-01T05:03:02.680Z,2.60
2022-11-01T05:05:31.791Z,3.20
2022-11-01T05:08:03.624Z,2.83
2022-11-01T05:10:31.900Z,2.80
2022-11-01T05:13:00.190Z,2.70
2022-11-01T05:15:29.841Z,2.97
2022-11-01T05:17:57.797Z,2.63
2022-11-01T05:20:25.871Z,2.53
2022-11-01T05:22:53.767Z,2.70
2022-11-01T05:25:21.646Z,2.50
2022-11-01T05:27:49.529Z,2.40
2022-11-01T05:30:17.437Z,2.73
2022-11-01T05:32:46.631Z,2.60
2022-11-01T05:35:14.507Z,2.50
2022-11-01T05:37:42.375Z,2.93
2022-11-01T05:40:11.575Z,2.57
2022-11-01T05:42:39.807Z,2.70
2022-11-01T05:45:09.984Z,2.33
2022-11-01T05:47:40.267Z,2.00
2022-11-01T05:50:11.208Z,2.30
2022-11-01T05:52:39.192Z,2.07
2022-11-01T05:55:08.532Z,2.00
2022-11-01T05:57:36.479Z,2.20
2022-11-01T06:00:05.577Z,2.23
2022-11-01T06:02:40.064Z,2.10
2022-11-01T06:05:10.135Z,1.90
2022-11-01T06:07:38.223Z,2.17
2022-11-01T06:10:07.046Z,1.80
2022-11-01T06:12:34.941Z,2.10
2022-11-01T06:15:02.797Z,2.53
2022-11-01T06:17:30.701Z,1.70
2022-11-01T06:19:58.586Z,1.87
2022-11-01T06:22:27.768Z,1.80
2022-11-01T06:24:55.658Z,2.23
2022-11-01T06:27:24.674Z,2.07
2022-11-01T06:29:52.587Z,1.97
2022-11-01T06:32:20.508Z,1.43
2022-11-01T06:34:48.416Z,1.43
2022-11-01T06:37:16.342Z,1.23
2022-11-01T06:39:45.529Z,1.70
2022-11-01T06:42:13.512Z,1.60
2022-11-01T06:44:41.494Z,2.23
2022-11-01T06:47:09.362Z,1.83
2022-11-01T06:49:37.255Z,2.07
2022-11-01T06:52:05.501Z,3.60
2022-11-01T06:54:33.399Z,2.10
2022-11-01T06:57:02.611Z,2.27
2022-11-01T06:59:30.504Z,1.40
2022-11-01T07:01:58.550Z,1.30
2022-11-01T07:04:28.858Z,1.20
2022-11-01T07:06:56.763Z,1.20
2022-11-01T07:09:24.798Z,0.90
2022-11-01T07:11:52.694Z,1.20
2022-11-01T07:14:21.960Z,1.07
2022-11-01T07:16:49.861Z,1.00
2022-11-01T07:19:17.762Z,0.97
2022-11-01T07:21:45.766Z,0.90
2022-11-01T07:24:13.621Z,1.17
2022-11-01T07:26:41.508Z,1.43
2022-11-01T07:29:09.446Z,4.93
2022-11-01T07:31:39.697Z,1.93
2022-11-01T07:34:07.733Z,4.07
2022-11-01T07:36:35.604Z,2.00
2022-11-01T07:39:03.645Z,1.60
2022-11-01T07:41:31.568Z,0.90
2022-11-01T07:43:59.508Z,0.70
2022-11-01T07:46:27.404Z,0.70
2022-11-01T07:48:56.673Z,0.60
2022-11-01T07:51:24.588Z,0.70
2022-11-01T07:53:52.556Z,0.80
2022-11-01T07:56:21.687Z,0.83
2022-11-01T07:58:49.623Z,0.90
2022-11-01T08:01:17.659Z,0.83
2022-11-01T08:03:45.675Z,0.87
2022-11-01T08:06:14.944Z,0.90
2022-11-01T08:08:42.988Z,0.80
2022-11-01T08:11:10.915Z,0.93
2022-11-01T08:13:38.815Z,0.83
2022-11-01T08:16:07.647Z,0.90
2022-11-01T08:18:35.590Z,0.80
2022-11-01T08:21:03.470Z,1.00
2022-11-01T08:23:32.708Z,1.17
2022-11-01T08:26:00.577Z,1.20
2022-11-01T08:28:30.354Z,1.43
2022-11-01T08:30:58.273Z,1.40
2022-11-01T08:33:26.191Z,1.50
2022-11-01T08:35:54.074Z,1.40
2022-11-01T08:38:21.956Z,1.40
2022-11-01T08:40:51.194Z,1.80
2022-11-01T08:43:19.166Z,3.60
2022-11-01T08:45:47.406Z,5.80
2022-11-01T08:48:15.365Z,2.00
2022-11-01T08:50:43.542Z,1.20
2022-11-01T08:53:13.484Z,1.10
2022-11-01T08:55:41.681Z,0.80
2022-11-01T08:58:11.132Z,0.80
2022-11-01T09:00:39.352Z,0.80
2022-11-01T09:03:07.699Z,0.83
2022-11-01T09:05:36.075Z,1.43
2022-11-01T09:08:04.585Z,1.20
2022-11-01T09:10:32.868Z,0.90
2022-11-01T09:13:01.901Z,0.87
2022-11-01T09:15:31.568Z,1.00
2022-11-01T09:17:59.641Z,0.90
2022-11-01T09:20:28.264Z,1.10
2022-11-01T09:22:56.186Z,0.90
2022-11-01T09:25:24.803Z,1.00
2022-11-01T09:27:52.663Z,0.97
2022-11-01T09:30:21.422Z,0.90
2022-11-01T09:32:50.781Z,0.90
2022-11-01T09:35:19.033Z,1.00
2022-11-01T09:37:46.950Z,1.03
2022-11-01T09:40:16.787Z,0.83
2022-11-01T09:42:45.773Z,0.90
2022-11-01T09:45:20.040Z,0.70
2022-11-01T09:47:53.933Z,0.60
2022-11-01T09:50:25.199Z,0.77
2022-11-01T09:52:55.864Z,0.80
2022-11-01T09:55:35.094Z,0.90
2022-11-01T09:58:09.835Z,0.70
2022-11-01T10:00:45.615Z,0.77
2022-11-01T10:03:33.469Z,0.80
2022-11-01T10:06:11.686Z,0.70
2022-11-01T10:08:53.764Z,0.77
2022-11-01T10:11:38.100Z,0.67
2022-11-01T10:14:17.372Z,0.80
2022-11-01T10:16:51.519Z,0.80
2022-11-01T10:19:23.843Z,0.70
2022-11-01T10:21:54.466Z,0.80
2022-11-01T10:24:28.036Z,0.90
2022-11-01T10:27:03.995Z,0.70
2022-11-01T10:29:41.157Z,0.87
2022-11-01T10:32:21.908Z,0.80
2022-11-01T10:34:53.102Z,0.80
2022-11-01T10:37:26.689Z,0.90
2022-11-01T10:40:00.107Z,0.80
2022-11-01T10:42:30.264Z,0.80
2022-11-01T10:45:01.271Z,0.80
2022-11-01T10:47:29.992Z,0.87
2022-11-01T10:50:07.571Z,0.90
2022-11-01T10:52:47.467Z,0.90
2022-11-01T10:55:19.657Z,0.80
2022-11-01T10:57:52.104Z,1.23
2022-11-01T11:00:21.911Z,0.90
2022-11-01T11:02:52.958Z,1.00
2022-11-01T11:05:23.694Z,1.10
2022-11-01T11:07:52.268Z,0.90
2022-11-01T11:10:24.361Z,1.23
2022-11-01T11:12:56.525Z,0.87
2022-11-01T11:15:35.639Z,1.07
2022-11-01T11:18:08.643Z,1.00
2022-11-01T11:20:38.099Z,1.20
2022-11-01T11:23:12.673Z,1.20
2022-11-01T11:25:42.164Z,0.90
2022-11-01T11:28:21.682Z,1.10
2022-11-01T11:30:49.894Z,1.20
2022-11-01T11:33:19.475Z,1.10
2022-11-01T11:35:58.312Z,0.90
2022-11-01T11:38:43.609Z,1.00
2022-11-01T11:41:26.914Z,1.10
2022-11-01T11:43:54.885Z,1.10
2022-11-01T11:46:24.748Z,1.13
2022-11-01T11:48:56.652Z,1.30
2022-11-01T11:51:28.752Z,1.10
2022-11-01T11:54:21.672Z,1.30
2022-11-01T11:56:53.410Z,1.30
2022-11-01T11:59:29.360Z,1.40
2022-11-01T12:02:00.133Z,1.30
2022-11-01T12:04:33.127Z,1.20
2022-11-01T12:07:02.558Z,1.50
2022-11-01T12:09:42.653Z,1.30
2022-11-01T12:12:18.571Z,1.40
2022-11-01T12:14:46.943Z,1.20
2022-11-01T12:17:29.377Z,1.70
2022-11-01T12:20:09.637Z,1.30
2022-11-01T12:22:43.136Z,1.80
2022-11-01T12:25:21.289Z,1.40
2022-11-01T12:28:00.753Z,1.60
2022-11-01T12:30:32.869Z,1.70
2022-11-01T12:33:05.144Z,1.87
2022-11-01T12:35:37.740Z,2.10
2022-11-01T12:38:40.587Z,1.77
2022-11-01T12:41:28.953Z,1.70
2022-11-01T12:44:04.799Z,1.50
2022-11-01T12:46:38.920Z,1.53
2022-11-01T12:49:15.307Z,1.50
2022-11-01T12:51:48.604Z,1.40
2022-11-01T12:54:23.194Z,1.60
2022-11-01T12:56:51.079Z,1.70
2022-11-01T12:59:27.214Z,1.47
2022-11-01T13:02:03.492Z,1.70
2022-11-01T13:04:35.190Z,1.33
2022-11-01T13:07:15.622Z,1.70
2022-11-01T13:09:55.395Z,1.63
2022-11-01T13:12:30.265Z,1.80
2022-11-01T13:15:09.441Z,2.00
2022-11-01T13:17:45.573Z,1.70
2022-11-01T13:20:27.885Z,2.20
2022-11-01T13:23:06.287Z,1.60
2022-11-01T13:25:40.308Z,1.60
2022-11-01T13:28:18.169Z,1.40
2022-11-01T13:30:56.332Z,1.80
2022-11-01T13:33:34.765Z,1.50
2022-11-01T13:36:11.224Z,1.57
2022-11-01T13:38:48.671Z,1.43
2022-11-01T13:41:25.301Z,1.80
2022-11-01T13:43:57.449Z,1.87
2022-11-01T13:46:47.333Z,1.60
2022-11-01T13:49:41.336Z,1.60
2022-11-01T13:52:16.334Z,1.73
2022-11-01T13:54:52.283Z,1.70
2022-11-01T13:57:25.780Z,1.43
2022-11-01T13:59:56.856Z,1.70
2022-11-01T14:02:59.124Z,1.73
2022-11-01T14:05:48.522Z,1.60
2022-11-01T14:08:28.727Z,1.57
2022-11-01T14:10:57.501Z,1.57
2022-11-01T14:13:35.839Z,1.57
2022-11-01T14:16:28.512Z,1.77
2022-11-01T14:19:21.182Z,1.93
2022-11-01T14:21:58.440Z,1.40
2022-11-01T14:24:35.180Z,1.40
2022-11-01T14:27:24.006Z,1.53
2022-11-01T14:29:55.221Z,1.60
2022-11-01T14:32:25.976Z,1.73
2022-11-01T14:35:01.294Z,1.60
2022-11-01T14:37:35.377Z,1.50
2022-11-01T14:40:22.841Z,1.70
2022-11-01T14:42:54.728Z,1.50
2022-11-01T14:45:33.524Z,1.47
2022-11-01T14:48:07.195Z,1.77
2022-11-01T14:50:45.687Z,1.70
2022-11-01T14:53:21.074Z,1.50
2022-11-01T14:55:48.999Z,1.47
2022-11-01T14:58:20.555Z,1.40
2022-11-01T15:00:52.261Z,2.00
2022-11-01T15:03:20.734Z,1.87
2022-11-01T15:05:50.505Z,1.80
2022-11-01T15:08:25.453Z,1.70
2022-11-01T15:10:55.877Z,1.80
2022-11-01T15:13:26.936Z,2.27
2022-11-01T15:16:08.399Z,1.70
2022-11-01T15:18:43.550Z,2.13
2022-11-01T15:21:16.369Z,2.07
2022-11-01T15:23:48.104Z,1.90
2022-11-01T15:26:18.900Z,2.17
2022-11-01T15:28:51.188Z,2.27
2022-11-01T15:31:21.548Z,2.30
2022-11-01T15:33:57.984Z,2.57
2022-11-01T15:36:32.840Z,2.27
2022-11-01T15:39:02.613Z,2.20
2022-11-01T15:41:32.270Z,1.80
2022-11-01T15:44:01.895Z,1.90
2022-11-01T15:46:34.104Z,2.10
2022-11-01T15:49:06.995Z,2.67
2022-11-01T15:51:40.243Z,2.53
2022-11-01T15:54:19.736Z,2.70
2022-11-01T15:56:51.568Z,3.10
2022-11-01T15:59:25.510Z,2.73
2022-11-01T16:01:57.536Z,2.53
2022-11-01T16:04:31.262Z,2.10
2022-11-01T16:07:08.362Z,2.03
2022-11-01T16:09:41.196Z,1.70
2022-11-01T16:12:18.346Z,2.70
2022-11-01T16:14:52.551Z,1.80
2022-11-01T16:17:31.492Z,5.03
2022-11-01T16:19:59.615Z,2.50
2022-11-01T16:22:39.191Z,2.33
2022-11-01T16:25:21.068Z,2.50
2022-11-01T16:27:57.224Z,3.20
2022-11-01T16:30:40.655Z,2.10
2022-11-01T16:33:24.190Z,2.10
2022-11-01T16:35:54.568Z,2.20
2022-11-01T16:38:27.747Z,2.43
2022-11-01T16:40:58.598Z,2.67
2022-11-01T16:43:28.594Z,2.53
2022-11-01T16:45:56.932Z,2.17
2022-11-01T16:48:29.274Z,2.17
2022-11-01T16:50:58.807Z,2.20
2022-11-01T16:53:28.540Z,1.97
2022-11-01T16:56:23.237Z,2.17
2022-11-01T16:58:50.995Z,2.37
2022-11-01T17:01:22.762Z,2.57
2022-11-01T17:03:53.137Z,2.23
2022-11-01T17:06:21.380Z,2.20
2022-11-01T17:08:49.367Z,2.10
2022-11-01T17:11:17.390Z,2.40
2022-11-01T17:13:45.285Z,2.20
2022-11-01T17:16:20.576Z,2.60
2022-11-01T17:18:49.140Z,2.00
2022-11-01T17:21:18.667Z,1.67
2022-11-01T17:23:46.803Z,2.20
2022-11-01T17:26:16.129Z,2.17
2022-11-01T17:28:49.516Z,2.73
2022-11-01T17:31:20.254Z,2.50
2022-11-01T17:33:48.217Z,2.30
2022-11-01T17:36:18.834Z,2.50
2022-11-01T17:38:49.070Z,2.30
2022-11-01T17:41:19.853Z,3.57
2022-11-01T17:43:47.815Z,2.70
2022-11-01T17:46:18.527Z,2.60
2022-11-01T17:48:46.589Z,2.20
2022-11-01T17:51:14.562Z,2.37
2022-11-01T17:53:43.909Z,2.80
2022-11-01T17:56:12.054Z,2.80
2022-11-01T17:58:39.950Z,2.33
2022-11-01T18:01:09.188Z,2.27
2022-11-01T18:03:37.249Z,2.57
2022-11-01T18:06:05.695Z,1.93
2022-11-01T18:08:35.642Z,2.37
2022-11-01T18:11:15.209Z,2.33
2022-11-01T18:13:53.703Z,2.37
2022-11-01T18:16:28.525Z,3.20
2022-11-01T18:19:11.812Z,2.20
2022-11-01T18:21:52.256Z,3.20
2022-11-01T18:24:25.570Z,3.13
2022-11-01T18:26:55.356Z,2.70
2022-11-01T18:29:23.828Z,2.50
2022-11-01T18:32:03.023Z,2.80
2022-11-01T18:34:37.378Z,2.67
2022-11-01T18:37:19.497Z,2.97
2022-11-01T18:39:53.668Z,3.27
2022-11-01T18:42:23.043Z,3.67
2022-11-01T18:44:51.443Z,3.57
2022-11-01T18:47:22.104Z,3.57
2022-11-01T18:49:50.959Z,3.73
2022-11-01T18:52:20.327Z,3.30
2022-11-01T18:54:55.160Z,3.30
2022-11-01T18:57:25.012Z,2.90
2022-11-01T18:59:55.055Z,2.30
2022-11-01T19:02:27.951Z,2.60
2022-11-01T19:05:10.092Z,2.93
2022-11-01T19:08:04.622Z,2.80
2022-11-01T19:10:28.287Z,2.50
2022-11-01T19:12:57.624Z,2.43
2022-11-01T19:15:28.141Z,2.60
2022-11-01T19:17:59.449Z,1.83
2022-11-01T19:20:29.157Z,2.20
2022-11-01T19:22:59.161Z,2.20
2022-11-01T19:25:31.378Z,2.50
2022-11-01T19:28:04.264Z,2.63
2022-11-01T19:30:34.053Z,1.97
2022-11-01T19:33:17.329Z,2.17
2022-11-01T19:35:45.716Z,2.63
2022-11-01T19:38:15.945Z,2.70
2022-11-01T19:40:44.668Z,2.30
2022-11-01T19:43:17.587Z,2.23
2022-11-01T19:45:47.073Z,2.60
2022-11-01T19:48:18.871Z,2.50
2022-11-01T19:50:47.866Z,2.47
2022-11-01T19:53:23.051Z,2.10
2022-11-01T19:55:54.128Z,2.50
2022-11-01T19:58:29.977Z,2.10
2022-11-01T20:01:19.864Z,2.50
2022-11-01T20:03:49.654Z,2.50
2022-11-01T20:06:21.406Z,2.10
2022-11-01T20:08:52.526Z,2.17
2022-11-01T20:11:20.651Z,2.33
2022-11-01T20:13:49.928Z,2.10
2022-11-01T20:16:17.939Z,2.67
2022-11-01T20:18:45.850Z,2.40
2022-11-01T20:21:13.820Z,2.23
2022-11-01T20:23:41.718Z,2.40
2022-11-01T20:26:09.788Z,2.03
2022-11-01T20:28:37.628Z,2.20
2022-11-01T20:31:07.076Z,1.87
2022-11-01T20:33:35.358Z,2.20
2022-11-01T20:36:08.222Z,2.23
2022-11-01T20:38:39.071Z,2.10
2022-11-01T20:41:07.278Z,1.90
2022-11-01T20:43:35.219Z,2.20
2022-11-01T20:46:03.258Z,2.07
2022-11-01T20:48:32.492Z,1.97
2022-11-01T20:51:00.816Z,2.17
2022-11-01T20:53:29.986Z,2.10
2022-11-01T20:55:58.097Z,2.60
2022-11-01T20:58:26.216Z,2.37
2022-11-01T21:00:54.154Z,2.27
2022-11-01T21:03:24.393Z,2.30
2022-11-01T21:05:53.587Z,2.57
2022-11-01T21:08:23.815Z,2.60
2022-11-01T21:10:57.406Z,2.57
2022-11-01T21:13:28.197Z,2.87
2022-11-01T21:15:57.779Z,2.90
2022-11-01T21:18:36.196Z,2.90
2022-11-01T21:21:42.457Z,2.50
2022-11-01T21:24:42.110Z,2.93
2022-11-01T21:30:15.529Z,3.20
2022-11-01T21:32:46.054Z,2.77
2022-11-01T21:35:38.892Z,2.67
2022-11-01T21:38:28.645Z,2.20
2022-11-01T21:40:57.224Z,2.60
2022-11-01T21:43:31.850Z,2.80
2022-11-01T21:45:59.831Z,2.40
2022-11-01T21:48:29.891Z,2.87
2022-11-01T21:50:58.097Z,3.10
2022-11-01T21:53:27.400Z,2.70
2022-11-01T21:55:55.291Z,2.30
2022-11-01T21:58:23.147Z,2.27
2022-11-01T22:00:51.026Z,2.40
2022-11-01T22:03:18.973Z,2.13
2022-11-01T22:05:47.232Z,2.10
2022-11-01T22:08:16.114Z,2.43
2022-11-01T22:10:48.779Z,2.13
2022-11-01T22:13:23.097Z,2.10
2022-11-01T22:15:51.129Z,2.30
2022-11-01T22:18:24.751Z,2.20
2022-11-01T22:20:53.090Z,1.77
2022-11-01T22:23:20.960Z,1.97
2022-11-01T22:25:50.227Z,2.43
2022-11-01T22:28:18.189Z,2.37
2022-11-01T22:30:46.235Z,2.10
2022-11-01T22:33:15.078Z,2.07
2022-11-01T22:35:43.010Z,2.00
2022-11-01T22:38:16.186Z,2.30
2022-11-01T22:40:48.685Z,1.97
2022-11-01T22:43:19.237Z,2.03
2022-11-01T22:45:47.278Z,1.80
2022-11-01T22:48:17.499Z,1.90
2022-11-01T22:50:45.409Z,1.80
2022-11-01T22:53:16.576Z,1.80
2022-11-01T22:55:45.389Z,2.67
2022-11-01T22:58:33.328Z,1.83
2022-11-01T23:01:02.310Z,1.90
2022-11-01T23:03:32.942Z,1.93
2022-11-01T23:06:04.545Z,1.73
2022-11-01T23:08:34.303Z,2.10
2022-11-01T23:11:03.083Z,2.07
2022-11-01T23:13:50.376Z,1.83
2022-11-01T23:16:26.690Z,2.47
2022-11-01T23:18:57.505Z,2.47
2022-11-01T23:21:25.654Z,2.17
2022-11-01T23:23:53.724Z,2.40
2022-11-01T23:26:22.000Z,2.23
2022-11-01T23:28:53.820Z,2.50
2022-11-01T23:31:22.196Z,2.03
2022-11-01T23:33:51.077Z,1.97
2022-11-01T23:36:23.671Z,2.23
2022-11-01T23:38:55.746Z,2.27
2022-11-01T23:41:26.445Z,2.00
2022-11-01T23:43:57.878Z,2.80
2022-11-01T23:46:26.833Z,2.17
2022-11-01T23:49:00.462Z,2.00
2022-11-01T23:51:30.931Z,2.10
2022-11-01T23:53:59.859Z,1.60
2022-11-01T23:56:27.910Z,2.33
2022-11-01T23:59:01.484Z,1.90
